sensor_id;sensor_type;location;lat;lon;timestamp;temperature;humidity
11744;DHT22;5929;51.906;7.674;2023-02-23T00:00:24;9.30;99.90
11744;DHT22;5929;51.906;7.674;2023-02-23T00:02:54;9.30;99.90
11744;DHT22;5929;51.906;7.674;2023-02-23T00:05:23;9.30;99.90
11744;DHT22;5929;51.906;7.674;2023-02-23T00:07:51;9.30;99.90
11744;DHT22;5929;51.906;7.674;2023-02-23T00:10:19;9.30;99.90
11744;DHT22;5929;51.906;7.674;2023-02-23T00:12:47;9.30;99.90
11744;DHT22;5929;51.906;7.674;2023-02-23T00:15:15;9.20;99.90
11744;DHT22;5929;51.906;7.674;2023-02-23T00:17:42;9.20;99.90
11744;DHT22;5929;51.906;7.674;2023-02-23T00:20:12;9.20;99.90
11744;DHT22;5929;51.906;7.674;2023-02-23T00:22:41;9.20;99.90
11744;DHT22;5929;51.906;7.674;2023-02-23T00:25:11;9.20;99.90
11744;DHT22;5929;51.906;7.674;2023-02-23T00:27:39;9.20;99.90
11744;DHT22;5929;51.906;7.674;2023-02-23T00:30:13;9.20;99.90
11744;DHT22;5929;51.906;7.674;2023-02-23T00:32:40;9.10;99.90
11744;DHT22;5929;51.906;7.674;2023-02-23T00:35:08;9.10;99.90
11744;DHT22;5929;51.906;7.674;2023-02-23T00:37:42;9.00;99.90
11744;DHT22;5929;51.906;7.674;2023-02-23T00:40:11;9.00;99.90
11744;DHT22;5929;51.906;7.674;2023-02-23T00:42:39;9.00;99.90
11744;DHT22;5929;51.906;7.674;2023-02-23T00:45:07;9.00;99.90
11744;DHT22;5929;51.906;7.674;2023-02-23T00:47:38;9.00;99.90
11744;DHT22;5929;51.906;7.674;2023-02-23T00:50:08;9.10;99.90
11744;DHT22;5929;51.906;7.674;2023-02-23T00:52:38;9.10;99.90
11744;DHT22;5929;51.906;7.674;2023-02-23T00:55:06;9.00;99.90
11744;DHT22;5929;51.906;7.674;2023-02-23T00:57:33;9.00;99.90
11744;DHT22;5929;51.906;7.674;2023-02-23T01:00:00;9.00;99.90
11744;DHT22;5929;51.906;7.674;2023-02-23T01:02:32;9.00;99.90
11744;DHT22;5929;51.906;7.674;2023-02-23T01:05:00;9.00;99.90
11744;DHT22;5929;51.906;7.674;2023-02-23T01:07:26;9.00;99.90
11744;DHT22;5929;51.906;7.674;2023-02-23T01:09:53;8.90;99.90
11744;DHT22;5929;51.906;7.674;2023-02-23T01:12:20;9.00;99.90
11744;DHT22;5929;51.906;7.674;2023-02-23T01:14:47;8.90;99.90
11744;DHT22;5929;51.906;7.674;2023-02-23T01:17:14;8.90;99.90
11744;DHT22;5929;51.906;7.674;2023-02-23T01:19:42;8.90;99.90
11744;DHT22;5929;51.906;7.674;2023-02-23T01:22:10;8.90;99.90
11744;DHT22;5929;51.906;7.674;2023-02-23T01:24:37;8.90;99.90
11744;DHT22;5929;51.906;7.674;2023-02-23T01:27:04;8.90;99.90
11744;DHT22;5929;51.906;7.674;2023-02-23T01:29:31;8.90;99.90
11744;DHT22;5929;51.906;7.674;2023-02-23T01:31:58;8.80;99.90
11744;DHT22;5929;51.906;7.674;2023-02-23T01:34:24;8.90;99.90
11744;DHT22;5929;51.906;7.674;2023-02-23T01:36:52;8.90;99.90
11744;DHT22;5929;51.906;7.674;2023-02-23T01:39:20;8.90;99.90
11744;DHT22;5929;51.906;7.674;2023-02-23T01:41:48;8.80;99.90
11744;DHT22;5929;51.906;7.674;2023-02-23T01:47:21;8.80;99.90
11744;DHT22;5929;51.906;7.674;2023-02-23T01:49:48;8.90;99.90
11744;DHT22;5929;51.906;7.674;2023-02-23T01:52:16;8.90;99.90
11744;DHT22;5929;51.906;7.674;2023-02-23T01:54:47;8.90;99.90
11744;DHT22;5929;51.906;7.674;2023-02-23T01:57:17;8.90;99.90
11744;DHT22;5929;51.906;7.674;2023-02-23T01:59:47;8.90;99.90
11744;DHT22;5929;51.906;7.674;2023-02-23T02:02:17;8.90;99.90
11744;DHT22;5929;51.906;7.674;2023-02-23T02:04:44;8.90;99.90
11744;DHT22;5929;51.906;7.674;2023-02-23T02:07:20;8.90;99.90
11744;DHT22;5929;51.906;7.674;2023-02-23T02:09:51;8.90;99.90
11744;DHT22;5929;51.906;7.674;2023-02-23T02:12:51;9.00;99.90
11744;DHT22;5929;51.906;7.674;2023-02-23T02:15:20;9.00;99.90
11744;DHT22;5929;51.906;7.674;2023-02-23T02:17:57;8.90;99.90
11744;DHT22;5929;51.906;7.674;2023-02-23T02:23:56;8.80;99.90
11744;DHT22;5929;51.906;7.674;2023-02-23T02:26:34;8.80;99.90
11744;DHT22;5929;51.906;7.674;2023-02-23T02:29:34;8.90;99.90
11744;DHT22;5929;51.906;7.674;2023-02-23T02:32:36;8.90;99.90
11744;DHT22;5929;51.906;7.674;2023-02-23T02:35:22;8.80;99.90
11744;DHT22;5929;51.906;7.674;2023-02-23T02:38:08;8.90;99.90
11744;DHT22;5929;51.906;7.674;2023-02-23T02:40:43;8.90;99.90
11744;DHT22;5929;51.906;7.674;2023-02-23T02:43:23;8.90;99.90
11744;DHT22;5929;51.906;7.674;2023-02-23T02:45:54;8.90;99.90
11744;DHT22;5929;51.906;7.674;2023-02-23T02:48:29;8.90;99.90
11744;DHT22;5929;51.906;7.674;2023-02-23T02:51:04;8.90;99.90
11744;DHT22;5929;51.906;7.674;2023-02-23T02:53:44;8.90;99.90
11744;DHT22;5929;51.906;7.674;2023-02-23T02:56:16;8.90;99.90
11744;DHT22;5929;51.906;7.674;2023-02-23T02:58:45;8.90;99.90
11744;DHT22;5929;51.906;7.674;2023-02-23T03:01:16;8.90;99.90
11744;DHT22;5929;51.906;7.674;2023-02-23T03:04:16;8.90;99.90
11744;DHT22;5929;51.906;7.674;2023-02-23T03:07:07;8.90;99.90
11744;DHT22;5929;51.906;7.674;2023-02-23T03:09:59;9.00;99.90
11744;DHT22;5929;51.906;7.674;2023-02-23T03:12:51;8.90;99.90
11744;DHT22;5929;51.906;7.674;2023-02-23T03:15:45;8.90;99.90
11744;DHT22;5929;51.906;7.674;2023-02-23T03:18:44;8.90;99.90
11744;DHT22;5929;51.906;7.674;2023-02-23T03:21:34;8.90;99.90
11744;DHT22;5929;51.906;7.674;2023-02-23T03:24:24;8.80;99.90
11744;DHT22;5929;51.906;7.674;2023-02-23T03:27:19;8.80;99.90
11744;DHT22;5929;51.906;7.674;2023-02-23T03:30:09;8.80;99.90
11744;DHT22;5929;51.906;7.674;2023-02-23T03:33:00;8.70;99.90
11744;DHT22;5929;51.906;7.674;2023-02-23T03:35:51;8.70;99.90
11744;DHT22;5929;51.906;7.674;2023-02-23T03:38:42;8.70;99.90
11744;DHT22;5929;51.906;7.674;2023-02-23T03:41:33;8.70;99.90
11744;DHT22;5929;51.906;7.674;2023-02-23T03:44:23;8.70;99.90
11744;DHT22;5929;51.906;7.674;2023-02-23T03:47:10;8.70;99.90
11744;DHT22;5929;51.906;7.674;2023-02-23T03:49:58;8.70;99.90
11744;DHT22;5929;51.906;7.674;2023-02-23T03:52:48;8.70;99.90
11744;DHT22;5929;51.906;7.674;2023-02-23T03:55:36;8.70;99.90
11744;DHT22;5929;51.906;7.674;2023-02-23T03:58:24;8.70;99.90
11744;DHT22;5929;51.906;7.674;2023-02-23T04:01:14;8.70;99.90
11744;DHT22;5929;51.906;7.674;2023-02-23T04:04:00;8.70;99.90
11744;DHT22;5929;51.906;7.674;2023-02-23T04:06:47;8.60;99.90
11744;DHT22;5929;51.906;7.674;2023-02-23T04:09:32;8.60;99.90
11744;DHT22;5929;51.906;7.674;2023-02-23T04:12:20;8.60;99.90
11744;DHT22;5929;51.906;7.674;2023-02-23T04:15:10;8.60;99.90
11744;DHT22;5929;51.906;7.674;2023-02-23T04:17:39;8.60;99.90
11744;DHT22;5929;51.906;7.674;2023-02-23T04:20:09;8.60;99.90
11744;DHT22;5929;51.906;7.674;2023-02-23T04:22:36;8.60;99.90
11744;DHT22;5929;51.906;7.674;2023-02-23T04:25:04;8.50;99.90
11744;DHT22;5929;51.906;7.674;2023-02-23T04:27:33;8.50;99.90
11744;DHT22;5929;51.906;7.674;2023-02-23T04:30:03;8.50;99.90
11744;DHT22;5929;51.906;7.674;2023-02-23T04:32:30;8.50;99.90
11744;DHT22;5929;51.906;7.674;2023-02-23T04:34:58;8.50;99.90
11744;DHT22;5929;51.906;7.674;2023-02-23T04:37:25;8.50;99.90
11744;DHT22;5929;51.906;7.674;2023-02-23T04:39:52;8.50;99.90
11744;DHT22;5929;51.906;7.674;2023-02-23T04:42:21;8.50;99.90
11744;DHT22;5929;51.906;7.674;2023-02-23T04:44:48;8.50;99.90
11744;DHT22;5929;51.906;7.674;2023-02-23T04:47:15;8.50;99.90
11744;DHT22;5929;51.906;7.674;2023-02-23T04:49:42;8.50;99.90
11744;DHT22;5929;51.906;7.674;2023-02-23T04:52:10;8.50;99.90
11744;DHT22;5929;51.906;7.674;2023-02-23T04:54:38;8.50;99.90
11744;DHT22;5929;51.906;7.674;2023-02-23T04:57:08;8.50;99.90
11744;DHT22;5929;51.906;7.674;2023-02-23T04:59:35;8.50;99.90
11744;DHT22;5929;51.906;7.674;2023-02-23T05:02:02;8.50;99.90
11744;DHT22;5929;51.906;7.674;2023-02-23T05:04:29;8.50;99.90
11744;DHT22;5929;51.906;7.674;2023-02-23T05:06:56;8.50;99.90
11744;DHT22;5929;51.906;7.674;2023-02-23T05:09:24;8.50;99.90
11744;DHT22;5929;51.906;7.674;2023-02-23T05:11:51;8.50;99.90
11744;DHT22;5929;51.906;7.674;2023-02-23T05:14:17;8.40;99.90
11744;DHT22;5929;51.906;7.674;2023-02-23T05:16:44;8.40;99.90
11744;DHT22;5929;51.906;7.674;2023-02-23T05:19:11;8.50;99.90
11744;DHT22;5929;51.906;7.674;2023-02-23T05:21:38;8.50;99.90
11744;DHT22;5929;51.906;7.674;2023-02-23T05:24:06;8.50;99.90
11744;DHT22;5929;51.906;7.674;2023-02-23T05:26:34;8.40;99.90
11744;DHT22;5929;51.906;7.674;2023-02-23T05:29:02;8.50;99.90
11744;DHT22;5929;51.906;7.674;2023-02-23T05:31:31;8.40;99.90
11744;DHT22;5929;51.906;7.674;2023-02-23T05:33:58;8.40;99.90
11744;DHT22;5929;51.906;7.674;2023-02-23T05:36:27;8.40;99.90
11744;DHT22;5929;51.906;7.674;2023-02-23T05:38:54;8.50;99.90
11744;DHT22;5929;51.906;7.674;2023-02-23T05:41:21;8.40;99.90
11744;DHT22;5929;51.906;7.674;2023-02-23T05:43:54;8.50;99.90
11744;DHT22;5929;51.906;7.674;2023-02-23T05:46:22;8.40;99.90
11744;DHT22;5929;51.906;7.674;2023-02-23T05:48:49;8.40;99.90
11744;DHT22;5929;51.906;7.674;2023-02-23T05:51:17;8.40;99.90
11744;DHT22;5929;51.906;7.674;2023-02-23T05:53:44;8.40;99.90
11744;DHT22;5929;51.906;7.674;2023-02-23T05:56:13;8.40;99.90
11744;DHT22;5929;51.906;7.674;2023-02-23T05:58:43;8.40;99.90
11744;DHT22;5929;51.906;7.674;2023-02-23T06:01:11;8.40;99.90
11744;DHT22;5929;51.906;7.674;2023-02-23T06:03:38;8.50;99.90
11744;DHT22;5929;51.906;7.674;2023-02-23T06:06:05;8.50;99.90
11744;DHT22;5929;51.906;7.674;2023-02-23T06:08:32;8.50;99.90
11744;DHT22;5929;51.906;7.674;2023-02-23T06:10:59;8.50;99.90
11744;DHT22;5929;51.906;7.674;2023-02-23T06:13:26;8.40;99.90
11744;DHT22;5929;51.906;7.674;2023-02-23T06:15:53;8.40;99.90
11744;DHT22;5929;51.906;7.674;2023-02-23T06:18:21;8.40;99.90
11744;DHT22;5929;51.906;7.674;2023-02-23T06:20:49;8.40;99.90
11744;DHT22;5929;51.906;7.674;2023-02-23T06:23:16;8.40;99.90
11744;DHT22;5929;51.906;7.674;2023-02-23T06:25:43;8.40;99.90
11744;DHT22;5929;51.906;7.674;2023-02-23T06:28:10;8.40;99.90
11744;DHT22;5929;51.906;7.674;2023-02-23T06:30:37;8.40;99.90
11744;DHT22;5929;51.906;7.674;2023-02-23T06:33:07;8.40;99.90
11744;DHT22;5929;51.906;7.674;2023-02-23T06:35:35;8.40;99.90
11744;DHT22;5929;51.906;7.674;2023-02-23T06:38:02;8.40;99.90
11744;DHT22;5929;51.906;7.674;2023-02-23T06:40:30;8.40;99.90
11744;DHT22;5929;51.906;7.674;2023-02-23T06:42:56;8.40;99.90
11744;DHT22;5929;51.906;7.674;2023-02-23T06:45:24;8.40;99.90
11744;DHT22;5929;51.906;7.674;2023-02-23T06:47:51;8.40;99.90
11744;DHT22;5929;51.906;7.674;2023-02-23T06:50:18;8.50;99.90
11744;DHT22;5929;51.906;7.674;2023-02-23T06:52:46;8.40;99.90
11744;DHT22;5929;51.906;7.674;2023-02-23T06:55:14;8.40;99.90
11744;DHT22;5929;51.906;7.674;2023-02-23T06:57:41;8.40;99.90
11744;DHT22;5929;51.906;7.674;2023-02-23T07:00:10;8.40;99.90
11744;DHT22;5929;51.906;7.674;2023-02-23T07:02:42;8.40;99.90
11744;DHT22;5929;51.906;7.674;2023-02-23T07:05:09;8.40;99.90
11744;DHT22;5929;51.906;7.674;2023-02-23T07:07:36;8.40;99.90
11744;DHT22;5929;51.906;7.674;2023-02-23T07:10:05;8.40;99.90
11744;DHT22;5929;51.906;7.674;2023-02-23T07:12:32;8.40;99.90
11744;DHT22;5929;51.906;7.674;2023-02-23T07:15:01;8.40;99.90
11744;DHT22;5929;51.906;7.674;2023-02-23T07:17:28;8.40;99.90
11744;DHT22;5929;51.906;7.674;2023-02-23T07:19:54;8.40;99.90
11744;DHT22;5929;51.906;7.674;2023-02-23T07:22:21;8.40;99.90
11744;DHT22;5929;51.906;7.674;2023-02-23T07:24:51;8.40;99.90
11744;DHT22;5929;51.906;7.674;2023-02-23T07:27:20;8.50;99.90
11744;DHT22;5929;51.906;7.674;2023-02-23T07:29:46;8.50;99.90
11744;DHT22;5929;51.906;7.674;2023-02-23T07:32:13;8.50;99.90
11744;DHT22;5929;51.906;7.674;2023-02-23T07:34:40;8.50;99.90
11744;DHT22;5929;51.906;7.674;2023-02-23T07:37:07;8.50;99.90
11744;DHT22;5929;51.906;7.674;2023-02-23T07:39:33;8.50;99.90
11744;DHT22;5929;51.906;7.674;2023-02-23T07:42:00;8.40;99.90
11744;DHT22;5929;51.906;7.674;2023-02-23T07:44:28;8.50;99.90
11744;DHT22;5929;51.906;7.674;2023-02-23T07:46:55;8.50;99.90
11744;DHT22;5929;51.906;7.674;2023-02-23T07:49:22;8.50;99.90
11744;DHT22;5929;51.906;7.674;2023-02-23T07:51:52;8.60;99.90
11744;DHT22;5929;51.906;7.674;2023-02-23T07:54:18;8.50;99.90
11744;DHT22;5929;51.906;7.674;2023-02-23T07:56:46;8.60;99.90
11744;DHT22;5929;51.906;7.674;2023-02-23T07:59:13;8.50;99.90
11744;DHT22;5929;51.906;7.674;2023-02-23T08:01:41;8.50;99.90
11744;DHT22;5929;51.906;7.674;2023-02-23T08:04:08;8.50;99.90
11744;DHT22;5929;51.906;7.674;2023-02-23T08:06:35;8.40;99.90
11744;DHT22;5929;51.906;7.674;2023-02-23T08:09:03;8.50;99.90
11744;DHT22;5929;51.906;7.674;2023-02-23T08:11:32;8.50;99.90
11744;DHT22;5929;51.906;7.674;2023-02-23T08:13:59;8.50;99.90
11744;DHT22;5929;51.906;7.674;2023-02-23T08:16:26;8.50;99.90
11744;DHT22;5929;51.906;7.674;2023-02-23T08:18:55;8.50;99.90
11744;DHT22;5929;51.906;7.674;2023-02-23T08:21:25;8.50;99.90
11744;DHT22;5929;51.906;7.674;2023-02-23T08:23:53;8.50;99.90
11744;DHT22;5929;51.906;7.674;2023-02-23T08:26:21;8.50;99.90
11744;DHT22;5929;51.906;7.674;2023-02-23T08:28:48;8.50;99.90
11744;DHT22;5929;51.906;7.674;2023-02-23T08:31:15;8.50;99.90
11744;DHT22;5929;51.906;7.674;2023-02-23T08:33:45;8.50;99.90
11744;DHT22;5929;51.906;7.674;2023-02-23T08:36:13;8.60;99.90
11744;DHT22;5929;51.906;7.674;2023-02-23T08:38:40;8.50;99.90
11744;DHT22;5929;51.906;7.674;2023-02-23T08:41:07;8.50;99.90
11744;DHT22;5929;51.906;7.674;2023-02-23T08:43:34;8.50;99.90
11744;DHT22;5929;51.906;7.674;2023-02-23T08:46:00;8.50;99.90
11744;DHT22;5929;51.906;7.674;2023-02-23T08:48:27;8.50;99.90
11744;DHT22;5929;51.906;7.674;2023-02-23T08:50:57;8.50;99.90
11744;DHT22;5929;51.906;7.674;2023-02-23T08:53:26;8.50;99.90
11744;DHT22;5929;51.906;7.674;2023-02-23T08:55:55;8.50;99.90
11744;DHT22;5929;51.906;7.674;2023-02-23T08:58:22;8.40;99.90
11744;DHT22;5929;51.906;7.674;2023-02-23T09:00:49;8.40;99.90
11744;DHT22;5929;51.906;7.674;2023-02-23T09:03:16;8.30;99.90
11744;DHT22;5929;51.906;7.674;2023-02-23T09:05:43;8.30;99.90
11744;DHT22;5929;51.906;7.674;2023-02-23T09:08:11;8.40;99.90
11744;DHT22;5929;51.906;7.674;2023-02-23T09:10:39;8.30;99.90
11744;DHT22;5929;51.906;7.674;2023-02-23T09:13:08;8.20;99.90
11744;DHT22;5929;51.906;7.674;2023-02-23T09:15:35;8.20;99.90
11744;DHT22;5929;51.906;7.674;2023-02-23T09:18:03;8.30;99.90
11744;DHT22;5929;51.906;7.674;2023-02-23T09:20:32;8.30;99.90
11744;DHT22;5929;51.906;7.674;2023-02-23T09:22:59;8.20;99.90
11744;DHT22;5929;51.906;7.674;2023-02-23T09:25:26;8.20;99.90
11744;DHT22;5929;51.906;7.674;2023-02-23T09:27:55;8.20;99.90
11744;DHT22;5929;51.906;7.674;2023-02-23T09:30:25;8.30;99.90
11744;DHT22;5929;51.906;7.674;2023-02-23T09:32:53;8.30;99.90
11744;DHT22;5929;51.906;7.674;2023-02-23T09:35:22;8.40;99.90
11744;DHT22;5929;51.906;7.674;2023-02-23T09:37:51;8.30;99.90
11744;DHT22;5929;51.906;7.674;2023-02-23T09:40:21;8.40;99.90
11744;DHT22;5929;51.906;7.674;2023-02-23T09:42:56;8.40;99.90
11744;DHT22;5929;51.906;7.674;2023-02-23T09:45:30;8.30;99.90
11744;DHT22;5929;51.906;7.674;2023-02-23T09:48:08;8.30;99.90
11744;DHT22;5929;51.906;7.674;2023-02-23T09:50:37;8.30;99.90
11744;DHT22;5929;51.906;7.674;2023-02-23T09:53:11;8.30;99.90
11744;DHT22;5929;51.906;7.674;2023-02-23T09:55:41;8.20;99.90
11744;DHT22;5929;51.906;7.674;2023-02-23T09:58:18;8.20;99.90
11744;DHT22;5929;51.906;7.674;2023-02-23T10:00:50;8.30;99.90
11744;DHT22;5929;51.906;7.674;2023-02-23T10:03:26;8.30;99.90
11744;DHT22;5929;51.906;7.674;2023-02-23T10:05:59;8.30;99.90
11744;DHT22;5929;51.906;7.674;2023-02-23T10:08:37;8.30;99.90
11744;DHT22;5929;51.906;7.674;2023-02-23T10:11:10;8.30;99.90
11744;DHT22;5929;51.906;7.674;2023-02-23T10:13:48;8.20;99.90
11744;DHT22;5929;51.906;7.674;2023-02-23T10:16:21;8.20;99.90
11744;DHT22;5929;51.906;7.674;2023-02-23T10:18:56;8.20;99.90
11744;DHT22;5929;51.906;7.674;2023-02-23T10:21:30;8.20;99.90
11744;DHT22;5929;51.906;7.674;2023-02-23T10:24:02;8.30;99.90
11744;DHT22;5929;51.906;7.674;2023-02-23T10:26:37;8.30;99.90
11744;DHT22;5929;51.906;7.674;2023-02-23T10:29:18;8.30;99.90
11744;DHT22;5929;51.906;7.674;2023-02-23T10:31:48;8.30;99.90
11744;DHT22;5929;51.906;7.674;2023-02-23T10:34:17;8.40;99.90
11744;DHT22;5929;51.906;7.674;2023-02-23T10:36:49;8.40;99.90
11744;DHT22;5929;51.906;7.674;2023-02-23T10:39:17;8.40;99.90
11744;DHT22;5929;51.906;7.674;2023-02-23T10:41:44;8.40;99.90
11744;DHT22;5929;51.906;7.674;2023-02-23T10:44:17;8.50;99.90
11744;DHT22;5929;51.906;7.674;2023-02-23T10:46:49;8.60;99.90
11744;DHT22;5929;51.906;7.674;2023-02-23T10:49:19;8.60;99.90
11744;DHT22;5929;51.906;7.674;2023-02-23T10:51:48;8.60;99.90
11744;DHT22;5929;51.906;7.674;2023-02-23T10:54:36;8.60;99.90
11744;DHT22;5929;51.906;7.674;2023-02-23T10:57:04;8.60;99.90
11744;DHT22;5929;51.906;7.674;2023-02-23T10:59:34;8.70;99.90
11744;DHT22;5929;51.906;7.674;2023-02-23T11:02:19;8.60;99.90
11744;DHT22;5929;51.906;7.674;2023-02-23T11:04:55;8.60;99.90
11744;DHT22;5929;51.906;7.674;2023-02-23T11:07:24;8.50;99.90
11744;DHT22;5929;51.906;7.674;2023-02-23T11:09:54;8.50;99.90
11744;DHT22;5929;51.906;7.674;2023-02-23T11:12:24;8.30;99.90
11744;DHT22;5929;51.906;7.674;2023-02-23T11:14:55;8.40;99.90
11744;DHT22;5929;51.906;7.674;2023-02-23T11:17:32;8.40;99.90
11744;DHT22;5929;51.906;7.674;2023-02-23T11:20:03;8.40;99.90
11744;DHT22;5929;51.906;7.674;2023-02-23T11:22:34;8.30;99.90
11744;DHT22;5929;51.906;7.674;2023-02-23T11:25:13;8.30;99.90
11744;DHT22;5929;51.906;7.674;2023-02-23T11:27:45;8.30;99.90
11744;DHT22;5929;51.906;7.674;2023-02-23T11:30:19;8.30;99.90
11744;DHT22;5929;51.906;7.674;2023-02-23T11:32:50;8.20;99.90
11744;DHT22;5929;51.906;7.674;2023-02-23T11:35:27;8.20;99.90
11744;DHT22;5929;51.906;7.674;2023-02-23T11:37:54;8.10;99.90
11744;DHT22;5929;51.906;7.674;2023-02-23T11:40:24;8.00;99.90
11744;DHT22;5929;51.906;7.674;2023-02-23T11:42:53;7.90;99.90
11744;DHT22;5929;51.906;7.674;2023-02-23T11:45:24;7.90;99.90
11744;DHT22;5929;51.906;7.674;2023-02-23T11:47:54;7.90;99.90
11744;DHT22;5929;51.906;7.674;2023-02-23T11:50:25;7.90;99.90
11744;DHT22;5929;51.906;7.674;2023-02-23T11:52:55;8.00;99.90
11744;DHT22;5929;51.906;7.674;2023-02-23T11:55:23;8.00;99.90
11744;DHT22;5929;51.906;7.674;2023-02-23T11:57:51;8.00;99.90
11744;DHT22;5929;51.906;7.674;2023-02-23T12:00:25;8.00;99.90
11744;DHT22;5929;51.906;7.674;2023-02-23T12:02:56;8.00;99.90
11744;DHT22;5929;51.906;7.674;2023-02-23T12:05:27;8.00;99.90
11744;DHT22;5929;51.906;7.674;2023-02-23T12:07:59;8.00;99.90
11744;DHT22;5929;51.906;7.674;2023-02-23T12:10:30;8.10;99.90
11744;DHT22;5929;51.906;7.674;2023-02-23T12:13:08;8.00;99.90
11744;DHT22;5929;51.906;7.674;2023-02-23T12:15:44;8.00;99.90
11744;DHT22;5929;51.906;7.674;2023-02-23T12:18:18;7.90;99.90
11744;DHT22;5929;51.906;7.674;2023-02-23T12:20:49;7.80;99.90
11744;DHT22;5929;51.906;7.674;2023-02-23T12:23:23;7.90;99.90
11744;DHT22;5929;51.906;7.674;2023-02-23T12:25:54;7.80;99.90
11744;DHT22;5929;51.906;7.674;2023-02-23T12:28:26;7.90;99.90
11744;DHT22;5929;51.906;7.674;2023-02-23T12:31:01;7.80;99.90
11744;DHT22;5929;51.906;7.674;2023-02-23T12:33:35;7.80;99.90
11744;DHT22;5929;51.906;7.674;2023-02-23T12:36:11;7.80;99.90
11744;DHT22;5929;51.906;7.674;2023-02-23T12:38:47;7.80;99.90
11744;DHT22;5929;51.906;7.674;2023-02-23T12:41:19;7.80;99.90
11744;DHT22;5929;51.906;7.674;2023-02-23T12:43:49;7.80;99.90
11744;DHT22;5929;51.906;7.674;2023-02-23T12:46:23;7.80;99.90
11744;DHT22;5929;51.906;7.674;2023-02-23T12:48:58;7.80;99.90
11744;DHT22;5929;51.906;7.674;2023-02-23T12:51:30;7.70;99.90
11744;DHT22;5929;51.906;7.674;2023-02-23T12:54:00;7.70;99.90
11744;DHT22;5929;51.906;7.674;2023-02-23T12:56:41;7.80;99.90
11744;DHT22;5929;51.906;7.674;2023-02-23T12:59:27;7.80;99.90
11744;DHT22;5929;51.906;7.674;2023-02-23T13:02:00;7.80;99.90
11744;DHT22;5929;51.906;7.674;2023-02-23T13:04:45;7.80;99.90
11744;DHT22;5929;51.906;7.674;2023-02-23T13:07:19;7.80;99.90
11744;DHT22;5929;51.906;7.674;2023-02-23T13:09:59;7.80;99.90
11744;DHT22;5929;51.906;7.674;2023-02-23T13:12:44;7.80;99.90
11744;DHT22;5929;51.906;7.674;2023-02-23T13:15:21;7.70;99.90
11744;DHT22;5929;51.906;7.674;2023-02-23T13:17:57;7.70;99.90
11744;DHT22;5929;51.906;7.674;2023-02-23T13:20:31;7.60;99.90
11744;DHT22;5929;51.906;7.674;2023-02-23T13:23:07;7.60;99.90
11744;DHT22;5929;51.906;7.674;2023-02-23T13:25:42;7.50;99.90
11744;DHT22;5929;51.906;7.674;2023-02-23T13:28:17;7.50;99.90
11744;DHT22;5929;51.906;7.674;2023-02-23T13:30:46;7.60;99.90
11744;DHT22;5929;51.906;7.674;2023-02-23T13:33:24;7.60;99.90
11744;DHT22;5929;51.906;7.674;2023-02-23T13:35:51;7.60;99.90
11744;DHT22;5929;51.906;7.674;2023-02-23T13:38:25;7.60;99.90
11744;DHT22;5929;51.906;7.674;2023-02-23T13:41:01;7.50;99.90
11744;DHT22;5929;51.906;7.674;2023-02-23T13:43:35;7.50;99.90
11744;DHT22;5929;51.906;7.674;2023-02-23T13:46:18;7.50;99.90
11744;DHT22;5929;51.906;7.674;2023-02-23T13:48:55;7.50;99.90
11744;DHT22;5929;51.906;7.674;2023-02-23T13:51:30;7.60;99.90
11744;DHT22;5929;51.906;7.674;2023-02-23T13:54:00;7.60;99.90
11744;DHT22;5929;51.906;7.674;2023-02-23T13:56:31;7.60;99.90
11744;DHT22;5929;51.906;7.674;2023-02-23T13:59:03;7.60;99.90
11744;DHT22;5929;51.906;7.674;2023-02-23T14:01:31;7.70;99.90
11744;DHT22;5929;51.906;7.674;2023-02-23T14:04:03;7.60;99.90
11744;DHT22;5929;51.906;7.674;2023-02-23T14:06:33;7.60;99.90
11744;DHT22;5929;51.906;7.674;2023-02-23T14:09:07;7.60;99.90
11744;DHT22;5929;51.906;7.674;2023-02-23T14:11:40;7.60;99.90
11744;DHT22;5929;51.906;7.674;2023-02-23T14:14:11;7.60;99.90
11744;DHT22;5929;51.906;7.674;2023-02-23T14:16:40;7.60;99.90
11744;DHT22;5929;51.906;7.674;2023-02-23T14:22:09;7.60;99.90
11744;DHT22;5929;51.906;7.674;2023-02-23T14:24:38;7.60;99.90
11744;DHT22;5929;51.906;7.674;2023-02-23T14:27:23;7.60;99.90
11744;DHT22;5929;51.906;7.674;2023-02-23T14:30:25;7.60;99.90
11744;DHT22;5929;51.906;7.674;2023-02-23T14:32:52;7.60;99.90
11744;DHT22;5929;51.906;7.674;2023-02-23T14:35:43;7.50;99.90
11744;DHT22;5929;51.906;7.674;2023-02-23T14:38:28;7.60;99.90
11744;DHT22;5929;51.906;7.674;2023-02-23T14:40:56;7.60;99.90
11744;DHT22;5929;51.906;7.674;2023-02-23T14:43:47;7.60;99.90
11744;DHT22;5929;51.906;7.674;2023-02-23T14:46:18;7.60;99.90
11744;DHT22;5929;51.906;7.674;2023-02-23T14:48:59;7.60;99.90
11744;DHT22;5929;51.906;7.674;2023-02-23T14:51:35;7.60;99.90
11744;DHT22;5929;51.906;7.674;2023-02-23T14:54:19;7.50;99.90
11744;DHT22;5929;51.906;7.674;2023-02-23T14:56:49;7.40;99.90
11744;DHT22;5929;51.906;7.674;2023-02-23T14:59:18;7.40;99.90
11744;DHT22;5929;51.906;7.674;2023-02-23T15:01:46;7.50;99.90
11744;DHT22;5929;51.906;7.674;2023-02-23T15:04:18;7.50;99.90
11744;DHT22;5929;51.906;7.674;2023-02-23T15:06:45;7.50;99.90
11744;DHT22;5929;51.906;7.674;2023-02-23T15:09:20;7.60;99.90
11744;DHT22;5929;51.906;7.674;2023-02-23T15:11:49;7.50;99.90
11744;DHT22;5929;51.906;7.674;2023-02-23T15:14:19;7.50;99.90
11744;DHT22;5929;51.906;7.674;2023-02-23T15:16:48;7.50;99.90
11744;DHT22;5929;51.906;7.674;2023-02-23T15:19:17;7.50;99.90
11744;DHT22;5929;51.906;7.674;2023-02-23T15:21:49;7.50;99.90
11744;DHT22;5929;51.906;7.674;2023-02-23T15:24:21;7.40;99.90
11744;DHT22;5929;51.906;7.674;2023-02-23T15:26:51;7.40;99.90
11744;DHT22;5929;51.906;7.674;2023-02-23T15:29:19;7.30;99.90
11744;DHT22;5929;51.906;7.674;2023-02-23T15:31:47;7.40;99.90
11744;DHT22;5929;51.906;7.674;2023-02-23T15:34:18;7.40;99.90
11744;DHT22;5929;51.906;7.674;2023-02-23T15:36:52;7.40;99.90
11744;DHT22;5929;51.906;7.674;2023-02-23T15:39:31;7.30;99.90
11744;DHT22;5929;51.906;7.674;2023-02-23T15:42:00;7.30;99.90
11744;DHT22;5929;51.906;7.674;2023-02-23T15:44:28;7.30;99.90
11744;DHT22;5929;51.906;7.674;2023-02-23T15:46:59;7.30;99.90
11744;DHT22;5929;51.906;7.674;2023-02-23T15:49:28;7.30;99.90
11744;DHT22;5929;51.906;7.674;2023-02-23T15:51:58;7.30;99.90
11744;DHT22;5929;51.906;7.674;2023-02-23T15:54:29;7.40;99.90
11744;DHT22;5929;51.906;7.674;2023-02-23T15:57:02;7.30;99.90
11744;DHT22;5929;51.906;7.674;2023-02-23T15:59:32;7.30;99.90
11744;DHT22;5929;51.906;7.674;2023-02-23T16:02:01;7.20;99.90
11744;DHT22;5929;51.906;7.674;2023-02-23T16:04:30;7.30;99.90
11744;DHT22;5929;51.906;7.674;2023-02-23T16:07:16;7.30;99.90
11744;DHT22;5929;51.906;7.674;2023-02-23T16:09:52;7.30;99.90
11744;DHT22;5929;51.906;7.674;2023-02-23T16:12:22;7.20;99.90
11744;DHT22;5929;51.906;7.674;2023-02-23T16:14:52;7.30;99.90
11744;DHT22;5929;51.906;7.674;2023-02-23T16:17:24;7.30;99.90
11744;DHT22;5929;51.906;7.674;2023-02-23T16:19:53;7.20;99.90
11744;DHT22;5929;51.906;7.674;2023-02-23T16:22:24;7.20;99.90
11744;DHT22;5929;51.906;7.674;2023-02-23T16:24:58;7.20;99.90
11744;DHT22;5929;51.906;7.674;2023-02-23T16:27:27;7.30;99.90
11744;DHT22;5929;51.906;7.674;2023-02-23T16:29:57;7.20;99.90
11744;DHT22;5929;51.906;7.674;2023-02-23T16:32:33;7.30;99.90
11744;DHT22;5929;51.906;7.674;2023-02-23T16:35:01;7.30;99.90
11744;DHT22;5929;51.906;7.674;2023-02-23T16:37:28;7.30;99.90
11744;DHT22;5929;51.906;7.674;2023-02-23T16:39:57;7.30;99.90
11744;DHT22;5929;51.906;7.674;2023-02-23T16:42:27;7.30;99.90